Avalon, California
Current Conditions -  °F | °C
As of 5:05 PM on Saturday 22 Nov 2014 (Local Time) from KAVX Reporting Station
Haze Haze  
Wind Chill: 15°   Ceiling: Unl
Heat Index: 15°   Visibility: 6mi
Dew Point: 11°   Wind: 12mph
Humidity: 78%   Direction: 280°W
Pressure: 30.05"   Gusts: NA
Location:  33.34°N, 118.33°W
Report Text: KAVX 230105Z AUTO 28010KT 6SM HZ FEW002 15/11 A3005 RMK AO2 T01500111
Loading
Personal Weather Stations






























Interactive Weather Map New forecast layout! Learn more

10-Day Weather Forecast

Advertisements
Track Severe Weather on mobile